sensor_id;sensor_type;location;lat;lon;timestamp;P1;durP1;ratioP1;P2;durP2;ratioP2
36259;SDS011;22296;50.824;5.644;2022-11-15T00:02:06;2.38;;;2.00;;
36259;SDS011;22296;50.824;5.644;2022-11-15T00:04:51;2.15;;;1.95;;
36259;SDS011;22296;50.824;5.644;2022-11-15T00:07:37;2.90;;;1.77;;
36259;SDS011;22296;50.824;5.644;2022-11-15T00:10:39;2.80;;;2.10;;
36259;SDS011;22296;50.824;5.644;2022-11-15T00:13:24;1.95;;;1.75;;
36259;SDS011;22296;50.824;5.644;2022-11-15T00:16:10;2.47;;;2.15;;
36259;SDS011;22296;50.824;5.644;2022-11-15T00:18:56;3.97;;;1.70;;
36259;SDS011;22296;50.824;5.644;2022-11-15T00:21:42;2.22;;;1.85;;
36259;SDS011;22296;50.824;5.644;2022-11-15T00:24:27;3.28;;;2.40;;
36259;SDS011;22296;50.824;5.644;2022-11-15T00:27:13;1.95;;;1.73;;
36259;SDS011;22296;50.824;5.644;2022-11-15T00:29:58;2.22;;;1.80;;
36259;SDS011;22296;50.824;5.644;2022-11-15T00:32:43;1.90;;;1.70;;
36259;SDS011;22296;50.824;5.644;2022-11-15T00:35:31;2.60;;;1.77;;
36259;SDS011;22296;50.824;5.644;2022-11-15T00:38:18;2.03;;;1.80;;
36259;SDS011;22296;50.824;5.644;2022-11-15T00:41:04;2.63;;;2.08;;
36259;SDS011;22296;50.824;5.644;2022-11-15T00:43:53;1.80;;;1.65;;
36259;SDS011;22296;50.824;5.644;2022-11-15T00:46:38;2.17;;;1.77;;
36259;SDS011;22296;50.824;5.644;2022-11-15T00:49:24;3.75;;;1.80;;
36259;SDS011;22296;50.824;5.644;2022-11-15T00:52:09;2.70;;;2.00;;
36259;SDS011;22296;50.824;5.644;2022-11-15T00:54:54;3.15;;;1.83;;
36259;SDS011;22296;50.824;5.644;2022-11-15T00:57:40;2.13;;;1.90;;
36259;SDS011;22296;50.824;5.644;2022-11-15T01:00:25;2.47;;;1.80;;
36259;SDS011;22296;50.824;5.644;2022-11-15T01:03:10;2.58;;;1.60;;
36259;SDS011;22296;50.824;5.644;2022-11-15T01:05:58;2.17;;;1.90;;
36259;SDS011;22296;50.824;5.644;2022-11-15T01:08:44;2.42;;;1.90;;
36259;SDS011;22296;50.824;5.644;2022-11-15T01:11:29;3.25;;;1.90;;
36259;SDS011;22296;50.824;5.644;2022-11-15T01:14:14;2.30;;;1.90;;
36259;SDS011;22296;50.824;5.644;2022-11-15T01:17:02;2.40;;;1.92;;
36259;SDS011;22296;50.824;5.644;2022-11-15T01:19:47;3.22;;;2.08;;
36259;SDS011;22296;50.824;5.644;2022-11-15T01:22:33;2.70;;;1.98;;
36259;SDS011;22296;50.824;5.644;2022-11-15T01:25:18;2.05;;;1.67;;
36259;SDS011;22296;50.824;5.644;2022-11-15T01:28:03;2.25;;;1.90;;
36259;SDS011;22296;50.824;5.644;2022-11-15T01:30:49;2.22;;;1.88;;
36259;SDS011;22296;50.824;5.644;2022-11-15T01:33:34;2.10;;;1.90;;
36259;SDS011;22296;50.824;5.644;2022-11-15T01:36:23;2.63;;;1.77;;
36259;SDS011;22296;50.824;5.644;2022-11-15T01:39:08;2.90;;;1.92;;
36259;SDS011;22296;50.824;5.644;2022-11-15T01:41:54;2.10;;;1.73;;
36259;SDS011;22296;50.824;5.644;2022-11-15T01:44:41;2.17;;;1.90;;
36259;SDS011;22296;50.824;5.644;2022-11-15T01:47:37;2.20;;;1.60;;
36259;SDS011;22296;50.824;5.644;2022-11-15T01:50:26;2.20;;;1.98;;
36259;SDS011;22296;50.824;5.644;2022-11-15T01:53:17;2.70;;;2.13;;
36259;SDS011;22296;50.824;5.644;2022-11-15T01:56:07;2.58;;;1.63;;
36259;SDS011;22296;50.824;5.644;2022-11-15T02:01:42;1.85;;;1.60;;
36259;SDS011;22296;50.824;5.644;2022-11-15T02:04:29;2.38;;;1.92;;
36259;SDS011;22296;50.824;5.644;2022-11-15T02:07:26;2.67;;;2.03;;
36259;SDS011;22296;50.824;5.644;2022-11-15T02:10:18;1.50;;;1.40;;
36259;SDS011;22296;50.824;5.644;2022-11-15T02:13:06;2.20;;;1.98;;
36259;SDS011;22296;50.824;5.644;2022-11-15T02:15:59;4.25;;;2.10;;
36259;SDS011;22296;50.824;5.644;2022-11-15T02:18:57;1.90;;;1.70;;
36259;SDS011;22296;50.824;5.644;2022-11-15T02:24:49;2.22;;;2.03;;
36259;SDS011;22296;50.824;5.644;2022-11-15T02:28:04;3.45;;;1.98;;
36259;SDS011;22296;50.824;5.644;2022-11-15T02:43:51;2.08;;;1.50;;
36259;SDS011;22296;50.824;5.644;2022-11-15T02:47:05;2.20;;;2.00;;
36259;SDS011;22296;50.824;5.644;2022-11-15T02:50:07;2.28;;;1.90;;
36259;SDS011;22296;50.824;5.644;2022-11-15T02:52:55;1.75;;;1.65;;
36259;SDS011;22296;50.824;5.644;2022-11-15T02:55:45;2.00;;;1.77;;
36259;SDS011;22296;50.824;5.644;2022-11-15T03:07:37;1.73;;;1.60;;
36259;SDS011;22296;50.824;5.644;2022-11-15T03:17:05;2.40;;;1.70;;
36259;SDS011;22296;50.824;5.644;2022-11-15T03:19:57;2.72;;;1.90;;
36259;SDS011;22296;50.824;5.644;2022-11-15T03:22:46;2.35;;;1.50;;
36259;SDS011;22296;50.824;5.644;2022-11-15T03:25:34;2.58;;;1.80;;
36259;SDS011;22296;50.824;5.644;2022-11-15T03:28:25;2.08;;;1.80;;
36259;SDS011;22296;50.824;5.644;2022-11-15T03:31:18;1.75;;;1.65;;
36259;SDS011;22296;50.824;5.644;2022-11-15T03:34:26;1.90;;;1.45;;
36259;SDS011;22296;50.824;5.644;2022-11-15T03:37:16;2.97;;;1.60;;
36259;SDS011;22296;50.824;5.644;2022-11-15T03:40:05;2.03;;;1.38;;
36259;SDS011;22296;50.824;5.644;2022-11-15T03:42:55;3.00;;;2.17;;
36259;SDS011;22296;50.824;5.644;2022-11-15T03:46:01;1.92;;;1.70;;
36259;SDS011;22296;50.824;5.644;2022-11-15T03:48:54;2.13;;;1.58;;
36259;SDS011;22296;50.824;5.644;2022-11-15T03:51:48;1.70;;;1.60;;
36259;SDS011;22296;50.824;5.644;2022-11-15T03:54:33;1.52;;;1.42;;
36259;SDS011;22296;50.824;5.644;2022-11-15T03:57:18;2.80;;;1.80;;
36259;SDS011;22296;50.824;5.644;2022-11-15T04:00:04;1.58;;;1.48;;
36259;SDS011;22296;50.824;5.644;2022-11-15T04:02:50;2.17;;;1.63;;
36259;SDS011;22296;50.824;5.644;2022-11-15T04:05:35;1.80;;;1.40;;
36259;SDS011;22296;50.824;5.644;2022-11-15T04:08:20;1.88;;;1.63;;
36259;SDS011;22296;50.824;5.644;2022-11-15T04:11:05;3.22;;;1.70;;
36259;SDS011;22296;50.824;5.644;2022-11-15T04:13:51;1.90;;;1.70;;
36259;SDS011;22296;50.824;5.644;2022-11-15T04:16:36;3.67;;;1.58;;
36259;SDS011;22296;50.824;5.644;2022-11-15T04:19:27;1.92;;;1.50;;
36259;SDS011;22296;50.824;5.644;2022-11-15T04:22:31;1.77;;;1.67;;
36259;SDS011;22296;50.824;5.644;2022-11-15T04:25:35;2.22;;;1.85;;
36259;SDS011;22296;50.824;5.644;2022-11-15T04:28:20;2.65;;;1.55;;
36259;SDS011;22296;50.824;5.644;2022-11-15T04:31:07;1.63;;;1.52;;
36259;SDS011;22296;50.824;5.644;2022-11-15T04:33:52;2.40;;;1.67;;
36259;SDS011;22296;50.824;5.644;2022-11-15T04:36:38;2.17;;;1.90;;
36259;SDS011;22296;50.824;5.644;2022-11-15T04:39:43;1.60;;;1.50;;
36259;SDS011;22296;50.824;5.644;2022-11-15T04:42:28;1.83;;;1.50;;
36259;SDS011;22296;50.824;5.644;2022-11-15T04:45:13;2.17;;;1.50;;
36259;SDS011;22296;50.824;5.644;2022-11-15T04:48:00;1.52;;;1.42;;
36259;SDS011;22296;50.824;5.644;2022-11-15T04:50:47;1.77;;;1.60;;
36259;SDS011;22296;50.824;5.644;2022-11-15T04:53:33;2.58;;;2.20;;
36259;SDS011;22296;50.824;5.644;2022-11-15T04:56:18;2.75;;;1.90;;
36259;SDS011;22296;50.824;5.644;2022-11-15T04:59:04;2.13;;;1.48;;
36259;SDS011;22296;50.824;5.644;2022-11-15T05:01:49;2.80;;;1.80;;
36259;SDS011;22296;50.824;5.644;2022-11-15T05:04:34;2.25;;;1.60;;
36259;SDS011;22296;50.824;5.644;2022-11-15T05:07:20;1.88;;;1.67;;
36259;SDS011;22296;50.824;5.644;2022-11-15T05:10:05;3.10;;;1.73;;
36259;SDS011;22296;50.824;5.644;2022-11-15T05:12:51;2.13;;;1.52;;
36259;SDS011;22296;50.824;5.644;2022-11-15T05:15:36;3.40;;;1.73;;
36259;SDS011;22296;50.824;5.644;2022-11-15T05:18:21;2.05;;;1.50;;
36259;SDS011;22296;50.824;5.644;2022-11-15T05:21:09;2.22;;;1.60;;
36259;SDS011;22296;50.824;5.644;2022-11-15T05:26:42;1.73;;;1.50;;
36259;SDS011;22296;50.824;5.644;2022-11-15T05:29:27;2.17;;;1.50;;
36259;SDS011;22296;50.824;5.644;2022-11-15T05:32:13;2.25;;;1.60;;
36259;SDS011;22296;50.824;5.644;2022-11-15T05:34:58;2.50;;;1.70;;
36259;SDS011;22296;50.824;5.644;2022-11-15T05:37:43;2.25;;;1.65;;
36259;SDS011;22296;50.824;5.644;2022-11-15T05:40:29;2.00;;;1.50;;
36259;SDS011;22296;50.824;5.644;2022-11-15T05:43:35;2.17;;;1.73;;
36259;SDS011;22296;50.824;5.644;2022-11-15T05:46:23;1.85;;;1.60;;
36259;SDS011;22296;50.824;5.644;2022-11-15T05:49:10;1.40;;;1.30;;
36259;SDS011;22296;50.824;5.644;2022-11-15T05:54:43;2.28;;;1.45;;
36259;SDS011;22296;50.824;5.644;2022-11-15T05:57:29;1.40;;;1.30;;
36259;SDS011;22296;50.824;5.644;2022-11-15T06:00:32;1.98;;;1.40;;
36259;SDS011;22296;50.824;5.644;2022-11-15T06:03:18;1.60;;;1.42;;
36259;SDS011;22296;50.824;5.644;2022-11-15T06:06:03;1.27;;;1.15;;
36259;SDS011;22296;50.824;5.644;2022-11-15T06:08:49;2.05;;;1.17;;
36259;SDS011;22296;50.824;5.644;2022-11-15T06:11:34;1.75;;;1.30;;
36259;SDS011;22296;50.824;5.644;2022-11-15T06:14:20;1.15;;;1.00;;
36259;SDS011;22296;50.824;5.644;2022-11-15T06:17:05;1.70;;;1.27;;
36259;SDS011;22296;50.824;5.644;2022-11-15T06:19:55;1.35;;;1.20;;
36259;SDS011;22296;50.824;5.644;2022-11-15T06:22:40;1.70;;;1.30;;
36259;SDS011;22296;50.824;5.644;2022-11-15T06:25:26;1.85;;;1.25;;
36259;SDS011;22296;50.824;5.644;2022-11-15T06:28:13;2.38;;;1.50;;
36259;SDS011;22296;50.824;5.644;2022-11-15T06:31:04;1.92;;;1.27;;
36259;SDS011;22296;50.824;5.644;2022-11-15T06:33:51;1.75;;;1.27;;
36259;SDS011;22296;50.824;5.644;2022-11-15T06:36:36;1.92;;;1.50;;
36259;SDS011;22296;50.824;5.644;2022-11-15T06:39:22;1.73;;;1.23;;
36259;SDS011;22296;50.824;5.644;2022-11-15T06:42:08;1.65;;;1.38;;
36259;SDS011;22296;50.824;5.644;2022-11-15T06:44:53;2.60;;;1.25;;
36259;SDS011;22296;50.824;5.644;2022-11-15T06:47:45;1.58;;;1.20;;
36259;SDS011;22296;50.824;5.644;2022-11-15T06:50:31;1.35;;;1.25;;
36259;SDS011;22296;50.824;5.644;2022-11-15T06:53:17;2.03;;;1.35;;
36259;SDS011;22296;50.824;5.644;2022-11-15T06:56:04;2.10;;;1.30;;
36259;SDS011;22296;50.824;5.644;2022-11-15T06:58:51;1.70;;;1.35;;
36259;SDS011;22296;50.824;5.644;2022-11-15T07:01:36;1.90;;;1.60;;
36259;SDS011;22296;50.824;5.644;2022-11-15T07:04:21;1.70;;;1.30;;
36259;SDS011;22296;50.824;5.644;2022-11-15T07:07:06;2.20;;;1.30;;
36259;SDS011;22296;50.824;5.644;2022-11-15T07:09:51;1.50;;;1.15;;
36259;SDS011;22296;50.824;5.644;2022-11-15T07:12:37;1.85;;;1.00;;
36259;SDS011;22296;50.824;5.644;2022-11-15T07:15:23;1.75;;;1.30;;
36259;SDS011;22296;50.824;5.644;2022-11-15T07:18:09;2.03;;;1.20;;
36259;SDS011;22296;50.824;5.644;2022-11-15T07:20:55;1.55;;;1.38;;
36259;SDS011;22296;50.824;5.644;2022-11-15T07:23:40;1.65;;;1.20;;
36259;SDS011;22296;50.824;5.644;2022-11-15T07:26:26;1.52;;;1.38;;
36259;SDS011;22296;50.824;5.644;2022-11-15T07:29:11;0.95;;;0.95;;
36259;SDS011;22296;50.824;5.644;2022-11-15T07:31:57;2.58;;;0.90;;
36259;SDS011;22296;50.824;5.644;2022-11-15T07:34:43;2.45;;;1.27;;
36259;SDS011;22296;50.824;5.644;2022-11-15T07:37:30;1.75;;;1.30;;
36259;SDS011;22296;50.824;5.644;2022-11-15T07:40:16;1.02;;;0.93;;
36259;SDS011;22296;50.824;5.644;2022-11-15T07:43:02;1.95;;;1.13;;
36259;SDS011;22296;50.824;5.644;2022-11-15T07:45:49;1.30;;;1.00;;
36259;SDS011;22296;50.824;5.644;2022-11-15T07:48:41;2.00;;;1.30;;
36259;SDS011;22296;50.824;5.644;2022-11-15T07:51:29;1.20;;;1.10;;
36259;SDS011;22296;50.824;5.644;2022-11-15T07:54:14;1.75;;;1.00;;
36259;SDS011;22296;50.824;5.644;2022-11-15T07:57:00;1.45;;;1.08;;
36259;SDS011;22296;50.824;5.644;2022-11-15T07:59:51;1.38;;;1.10;;
36259;SDS011;22296;50.824;5.644;2022-11-15T08:02:36;1.23;;;1.13;;
36259;SDS011;22296;50.824;5.644;2022-11-15T08:05:21;1.23;;;1.13;;
36259;SDS011;22296;50.824;5.644;2022-11-15T08:08:08;1.30;;;1.20;;
36259;SDS011;22296;50.824;5.644;2022-11-15T08:10:57;2.13;;;1.55;;
36259;SDS011;22296;50.824;5.644;2022-11-15T08:13:43;1.45;;;1.23;;
36259;SDS011;22296;50.824;5.644;2022-11-15T08:16:28;1.83;;;1.05;;
36259;SDS011;22296;50.824;5.644;2022-11-15T08:19:13;1.92;;;1.27;;
36259;SDS011;22296;50.824;5.644;2022-11-15T08:21:59;2.08;;;1.40;;
36259;SDS011;22296;50.824;5.644;2022-11-15T08:24:44;2.97;;;1.40;;
36259;SDS011;22296;50.824;5.644;2022-11-15T08:27:29;1.63;;;1.20;;
36259;SDS011;22296;50.824;5.644;2022-11-15T08:30:15;2.70;;;1.58;;
36259;SDS011;22296;50.824;5.644;2022-11-15T08:33:00;1.80;;;1.27;;
36259;SDS011;22296;50.824;5.644;2022-11-15T08:35:46;2.30;;;1.40;;
36259;SDS011;22296;50.824;5.644;2022-11-15T08:38:32;1.75;;;1.30;;
36259;SDS011;22296;50.824;5.644;2022-11-15T08:41:21;1.83;;;1.45;;
36259;SDS011;22296;50.824;5.644;2022-11-15T08:44:11;1.90;;;1.50;;
36259;SDS011;22296;50.824;5.644;2022-11-15T08:46:57;1.27;;;1.17;;
36259;SDS011;22296;50.824;5.644;2022-11-15T08:49:42;1.70;;;1.50;;
36259;SDS011;22296;50.824;5.644;2022-11-15T08:52:27;2.47;;;1.35;;
36259;SDS011;22296;50.824;5.644;2022-11-15T08:55:13;1.70;;;1.00;;
36259;SDS011;22296;50.824;5.644;2022-11-15T08:58:01;1.55;;;1.17;;
36259;SDS011;22296;50.824;5.644;2022-11-15T09:00:46;1.77;;;1.20;;
36259;SDS011;22296;50.824;5.644;2022-11-15T09:03:32;1.42;;;1.25;;
36259;SDS011;22296;50.824;5.644;2022-11-15T09:06:18;1.67;;;1.30;;
36259;SDS011;22296;50.824;5.644;2022-11-15T09:09:03;1.35;;;1.25;;
36259;SDS011;22296;50.824;5.644;2022-11-15T09:11:48;1.40;;;1.10;;
36259;SDS011;22296;50.824;5.644;2022-11-15T09:14:35;1.17;;;1.02;;
36259;SDS011;22296;50.824;5.644;2022-11-15T09:17:21;2.95;;;1.10;;
36259;SDS011;22296;50.824;5.644;2022-11-15T09:20:26;2.08;;;1.30;;
36259;SDS011;22296;50.824;5.644;2022-11-15T09:23:12;2.05;;;1.20;;
36259;SDS011;22296;50.824;5.644;2022-11-15T09:25:59;1.40;;;1.13;;
36259;SDS011;22296;50.824;5.644;2022-11-15T09:28:46;1.08;;;0.90;;
36259;SDS011;22296;50.824;5.644;2022-11-15T09:31:31;1.85;;;1.10;;
36259;SDS011;22296;50.824;5.644;2022-11-15T09:34:16;1.83;;;0.82;;
36259;SDS011;22296;50.824;5.644;2022-11-15T09:37:01;0.80;;;0.80;;
36259;SDS011;22296;50.824;5.644;2022-11-15T09:39:47;1.30;;;1.20;;
36259;SDS011;22296;50.824;5.644;2022-11-15T09:48:58;1.23;;;0.95;;
36259;SDS011;22296;50.824;5.644;2022-11-15T09:51:56;2.10;;;0.95;;
36259;SDS011;22296;50.824;5.644;2022-11-15T09:57:20;1.48;;;1.27;;
36259;SDS011;22296;50.824;5.644;2022-11-15T09:59:54;1.60;;;1.10;;
36259;SDS011;22296;50.824;5.644;2022-11-15T10:03:02;1.80;;;1.05;;
36259;SDS011;22296;50.824;5.644;2022-11-15T10:05:43;1.77;;;1.10;;
36259;SDS011;22296;50.824;5.644;2022-11-15T10:08:24;1.63;;;1.10;;
36259;SDS011;22296;50.824;5.644;2022-11-15T10:11:20;1.65;;;1.30;;
36259;SDS011;22296;50.824;5.644;2022-11-15T10:14:21;1.15;;;1.00;;
36259;SDS011;22296;50.824;5.644;2022-11-15T10:27:35;1.38;;;0.90;;
36259;SDS011;22296;50.824;5.644;2022-11-15T10:30:03;1.92;;;1.30;;
36259;SDS011;22296;50.824;5.644;2022-11-15T10:32:36;1.10;;;0.70;;
36259;SDS011;22296;50.824;5.644;2022-11-15T10:35:15;1.38;;;0.80;;
36259;SDS011;22296;50.824;5.644;2022-11-15T10:38:10;0.80;;;0.80;;
36259;SDS011;22296;50.824;5.644;2022-11-15T10:40:39;1.92;;;1.20;;
36259;SDS011;22296;50.824;5.644;2022-11-15T10:45:36;1.35;;;0.93;;
36259;SDS011;22296;50.824;5.644;2022-11-15T10:50:42;2.35;;;1.05;;
36259;SDS011;22296;50.824;5.644;2022-11-15T10:53:24;1.67;;;0.80;;
36259;SDS011;22296;50.824;5.644;2022-11-15T10:55:59;1.08;;;0.80;;
36259;SDS011;22296;50.824;5.644;2022-11-15T10:58:34;0.73;;;0.70;;
36259;SDS011;22296;50.824;5.644;2022-11-15T11:03:40;1.00;;;0.90;;
36259;SDS011;22296;50.824;5.644;2022-11-15T11:06:10;1.02;;;0.90;;
36259;SDS011;22296;50.824;5.644;2022-11-15T11:08:57;1.83;;;0.90;;
36259;SDS011;22296;50.824;5.644;2022-11-15T11:14:17;0.95;;;0.80;;
36259;SDS011;22296;50.824;5.644;2022-11-15T11:16:57;1.88;;;0.70;;
36259;SDS011;22296;50.824;5.644;2022-11-15T11:30:33;1.15;;;0.73;;
36259;SDS011;22296;50.824;5.644;2022-11-15T11:52:43;1.00;;;0.77;;
36259;SDS011;22296;50.824;5.644;2022-11-15T11:55:29;1.10;;;0.73;;
36259;SDS011;22296;50.824;5.644;2022-11-15T12:00:26;1.27;;;0.85;;
36259;SDS011;22296;50.824;5.644;2022-11-15T12:05:35;1.25;;;0.82;;
36259;SDS011;22296;50.824;5.644;2022-11-15T12:11:10;0.95;;;0.70;;
36259;SDS011;22296;50.824;5.644;2022-11-15T12:13:42;2.20;;;0.90;;
36259;SDS011;22296;50.824;5.644;2022-11-15T12:18:41;1.38;;;0.50;;
36259;SDS011;22296;50.824;5.644;2022-11-15T12:21:16;1.92;;;0.70;;
36259;SDS011;22296;50.824;5.644;2022-11-15T12:29:38;0.98;;;0.73;;
36259;SDS011;22296;50.824;5.644;2022-11-15T12:32:15;0.70;;;0.43;;
36259;SDS011;22296;50.824;5.644;2022-11-15T12:34:50;0.70;;;0.60;;
36259;SDS011;22296;50.824;5.644;2022-11-15T12:43:39;1.33;;;0.70;;
36259;SDS011;22296;50.824;5.644;2022-11-15T12:46:12;1.50;;;0.68;;
36259;SDS011;22296;50.824;5.644;2022-11-15T12:48:51;0.88;;;0.60;;
36259;SDS011;22296;50.824;5.644;2022-11-15T12:51:20;2.25;;;0.60;;
36259;SDS011;22296;50.824;5.644;2022-11-15T12:58:59;0.80;;;0.55;;
36259;SDS011;22296;50.824;5.644;2022-11-15T13:06:49;1.13;;;0.50;;
36259;SDS011;22296;50.824;5.644;2022-11-15T13:12:01;0.65;;;0.60;;
36259;SDS011;22296;50.824;5.644;2022-11-15T13:17:16;1.40;;;0.50;;
36259;SDS011;22296;50.824;5.644;2022-11-15T13:19:47;1.20;;;0.50;;
36259;SDS011;22296;50.824;5.644;2022-11-15T13:22:19;0.85;;;0.60;;
36259;SDS011;22296;50.824;5.644;2022-11-15T13:25:04;1.95;;;0.60;;
36259;SDS011;22296;50.824;5.644;2022-11-15T13:27:42;0.80;;;0.50;;
36259;SDS011;22296;50.824;5.644;2022-11-15T13:30:21;1.85;;;0.57;;
36259;SDS011;22296;50.824;5.644;2022-11-15T13:32:53;0.70;;;0.60;;
36259;SDS011;22296;50.824;5.644;2022-11-15T13:35:21;0.55;;;0.50;;
36259;SDS011;22296;50.824;5.644;2022-11-15T13:37:53;0.75;;;0.50;;
36259;SDS011;22296;50.824;5.644;2022-11-15T13:42:56;1.48;;;0.60;;
36259;SDS011;22296;50.824;5.644;2022-11-15T13:45:24;0.95;;;0.52;;
36259;SDS011;22296;50.824;5.644;2022-11-15T13:47:57;0.83;;;0.50;;
36259;SDS011;22296;50.824;5.644;2022-11-15T13:50:28;1.45;;;0.70;;
36259;SDS011;22296;50.824;5.644;2022-11-15T13:52:59;0.75;;;0.60;;
36259;SDS011;22296;50.824;5.644;2022-11-15T13:55:29;0.90;;;0.50;;
36259;SDS011;22296;50.824;5.644;2022-11-15T13:58:00;0.60;;;0.50;;
36259;SDS011;22296;50.824;5.644;2022-11-15T14:00:35;0.93;;;0.55;;
36259;SDS011;22296;50.824;5.644;2022-11-15T14:08:57;1.30;;;0.60;;
36259;SDS011;22296;50.824;5.644;2022-11-15T14:11:51;0.73;;;0.50;;
36259;SDS011;22296;50.824;5.644;2022-11-15T14:14:21;1.13;;;0.70;;
36259;SDS011;22296;50.824;5.644;2022-11-15T14:16:53;1.15;;;0.50;;
36259;SDS011;22296;50.824;5.644;2022-11-15T14:27:39;0.93;;;0.60;;
36259;SDS011;22296;50.824;5.644;2022-11-15T14:30:16;0.90;;;0.70;;
36259;SDS011;22296;50.824;5.644;2022-11-15T14:32:45;1.05;;;0.70;;
36259;SDS011;22296;50.824;5.644;2022-11-15T14:35:16;1.63;;;0.70;;
36259;SDS011;22296;50.824;5.644;2022-11-15T14:37:44;0.80;;;0.60;;
36259;SDS011;22296;50.824;5.644;2022-11-15T14:40:15;1.00;;;0.70;;
36259;SDS011;22296;50.824;5.644;2022-11-15T14:42:44;0.80;;;0.60;;
36259;SDS011;22296;50.824;5.644;2022-11-15T14:45:13;0.95;;;0.60;;
36259;SDS011;22296;50.824;5.644;2022-11-15T14:47:45;1.17;;;0.70;;
36259;SDS011;22296;50.824;5.644;2022-11-15T14:50:13;0.85;;;0.60;;
36259;SDS011;22296;50.824;5.644;2022-11-15T14:52:41;1.02;;;0.70;;
36259;SDS011;22296;50.824;5.644;2022-11-15T14:55:31;1.05;;;0.60;;
36259;SDS011;22296;50.824;5.644;2022-11-15T14:58:02;2.63;;;0.77;;
36259;SDS011;22296;50.824;5.644;2022-11-15T15:00:30;1.98;;;0.75;;
36259;SDS011;22296;50.824;5.644;2022-11-15T15:03:01;0.68;;;0.57;;
36259;SDS011;22296;50.824;5.644;2022-11-15T15:05:36;1.42;;;0.77;;
36259;SDS011;22296;50.824;5.644;2022-11-15T15:08:05;0.77;;;0.60;;
36259;SDS011;22296;50.824;5.644;2022-11-15T15:10:33;1.63;;;0.70;;
36259;SDS011;22296;50.824;5.644;2022-11-15T15:13:17;0.60;;;0.50;;
36259;SDS011;22296;50.824;5.644;2022-11-15T15:15:46;1.45;;;0.93;;
36259;SDS011;22296;50.824;5.644;2022-11-15T15:18:14;0.93;;;0.65;;
36259;SDS011;22296;50.824;5.644;2022-11-15T15:20:42;1.40;;;0.80;;
36259;SDS011;22296;50.824;5.644;2022-11-15T15:23:14;0.80;;;0.60;;
36259;SDS011;22296;50.824;5.644;2022-11-15T15:25:42;1.45;;;0.50;;
36259;SDS011;22296;50.824;5.644;2022-11-15T15:28:12;0.90;;;0.70;;
36259;SDS011;22296;50.824;5.644;2022-11-15T15:30:39;2.53;;;0.70;;
36259;SDS011;22296;50.824;5.644;2022-11-15T15:33:06;1.05;;;0.70;;
36259;SDS011;22296;50.824;5.644;2022-11-15T15:35:34;0.93;;;0.80;;
36259;SDS011;22296;50.824;5.644;2022-11-15T15:38:01;2.40;;;0.73;;
36259;SDS011;22296;50.824;5.644;2022-11-15T15:40:29;1.52;;;0.80;;
36259;SDS011;22296;50.824;5.644;2022-11-15T15:42:58;1.33;;;0.85;;
36259;SDS011;22296;50.824;5.644;2022-11-15T15:45:26;1.00;;;0.75;;
36259;SDS011;22296;50.824;5.644;2022-11-15T15:47:54;2.08;;;0.90;;
36259;SDS011;22296;50.824;5.644;2022-11-15T15:52:51;1.20;;;0.70;;
36259;SDS011;22296;50.824;5.644;2022-11-15T15:55:19;1.88;;;0.98;;
36259;SDS011;22296;50.824;5.644;2022-11-15T15:57:46;1.10;;;0.80;;
36259;SDS011;22296;50.824;5.644;2022-11-15T16:00:14;1.63;;;0.90;;
36259;SDS011;22296;50.824;5.644;2022-11-15T16:02:42;1.30;;;0.70;;
36259;SDS011;22296;50.824;5.644;2022-11-15T16:05:09;1.45;;;1.00;;
36259;SDS011;22296;50.824;5.644;2022-11-15T16:07:37;1.20;;;0.90;;
36259;SDS011;22296;50.824;5.644;2022-11-15T16:10:14;1.20;;;0.80;;
36259;SDS011;22296;50.824;5.644;2022-11-15T16:12:43;1.40;;;1.05;;
36259;SDS011;22296;50.824;5.644;2022-11-15T16:15:10;1.30;;;0.85;;
36259;SDS011;22296;50.824;5.644;2022-11-15T16:17:38;1.10;;;0.80;;
36259;SDS011;22296;50.824;5.644;2022-11-15T16:20:19;1.30;;;0.90;;
36259;SDS011;22296;50.824;5.644;2022-11-15T16:22:56;2.10;;;0.93;;
36259;SDS011;22296;50.824;5.644;2022-11-15T16:25:28;2.20;;;1.00;;
36259;SDS011;22296;50.824;5.644;2022-11-15T16:27:56;1.67;;;0.90;;
36259;SDS011;22296;50.824;5.644;2022-11-15T16:30:23;2.45;;;0.90;;
36259;SDS011;22296;50.824;5.644;2022-11-15T16:32:50;1.45;;;1.05;;
36259;SDS011;22296;50.824;5.644;2022-11-15T16:35:17;1.00;;;0.90;;
36259;SDS011;22296;50.824;5.644;2022-11-15T16:37:44;1.02;;;0.93;;
36259;SDS011;22296;50.824;5.644;2022-11-15T16:40:28;1.98;;;0.80;;
36259;SDS011;22296;50.824;5.644;2022-11-15T16:42:57;1.25;;;1.10;;
36259;SDS011;22296;50.824;5.644;2022-11-15T16:45:25;1.63;;;1.02;;
36259;SDS011;22296;50.824;5.644;2022-11-15T16:47:54;1.75;;;1.15;;
36259;SDS011;22296;50.824;5.644;2022-11-15T16:50:23;1.50;;;1.10;;
36259;SDS011;22296;50.824;5.644;2022-11-15T16:55:19;1.73;;;0.95;;
36259;SDS011;22296;50.824;5.644;2022-11-15T16:57:47;0.82;;;0.80;;
36259;SDS011;22296;50.824;5.644;2022-11-15T17:00:15;1.80;;;0.98;;
36259;SDS011;22296;50.824;5.644;2022-11-15T17:02:48;1.33;;;1.00;;
36259;SDS011;22296;50.824;5.644;2022-11-15T17:05:16;1.30;;;1.00;;
36259;SDS011;22296;50.824;5.644;2022-11-15T17:07:46;1.75;;;1.25;;
36259;SDS011;22296;50.824;5.644;2022-11-15T17:10:16;1.15;;;0.90;;
36259;SDS011;22296;50.824;5.644;2022-11-15T17:12:43;1.15;;;1.05;;
36259;SDS011;22296;50.824;5.644;2022-11-15T17:15:12;0.80;;;0.80;;
36259;SDS011;22296;50.824;5.644;2022-11-15T17:17:39;1.60;;;1.10;;
36259;SDS011;22296;50.824;5.644;2022-11-15T17:20:14;1.60;;;1.10;;
36259;SDS011;22296;50.824;5.644;2022-11-15T17:22:42;1.83;;;0.98;;
36259;SDS011;22296;50.824;5.644;2022-11-15T17:25:09;1.40;;;1.08;;
36259;SDS011;22296;50.824;5.644;2022-11-15T17:27:36;1.55;;;1.10;;
36259;SDS011;22296;50.824;5.644;2022-11-15T17:30:03;1.70;;;1.10;;
36259;SDS011;22296;50.824;5.644;2022-11-15T17:32:30;1.35;;;1.05;;
36259;SDS011;22296;50.824;5.644;2022-11-15T17:34:57;1.70;;;1.00;;
36259;SDS011;22296;50.824;5.644;2022-11-15T17:37:24;3.15;;;1.00;;
36259;SDS011;22296;50.824;5.644;2022-11-15T17:39:51;1.38;;;1.00;;
36259;SDS011;22296;50.824;5.644;2022-11-15T17:42:17;3.17;;;1.00;;
36259;SDS011;22296;50.824;5.644;2022-11-15T17:44:44;1.10;;;1.00;;
36259;SDS011;22296;50.824;5.644;2022-11-15T17:47:14;1.55;;;0.90;;
36259;SDS011;22296;50.824;5.644;2022-11-15T17:49:41;1.10;;;0.98;;
36259;SDS011;22296;50.824;5.644;2022-11-15T17:52:07;2.63;;;1.27;;
36259;SDS011;22296;50.824;5.644;2022-11-15T17:54:34;2.03;;;1.13;;
36259;SDS011;22296;50.824;5.644;2022-11-15T17:57:01;1.95;;;1.38;;
36259;SDS011;22296;50.824;5.644;2022-11-15T17:59:28;4.85;;;1.40;;
36259;SDS011;22296;50.824;5.644;2022-11-15T18:01:55;2.40;;;1.55;;
36259;SDS011;22296;50.824;5.644;2022-11-15T18:04:22;1.77;;;1.15;;
36259;SDS011;22296;50.824;5.644;2022-11-15T18:06:54;2.25;;;1.15;;
36259;SDS011;22296;50.824;5.644;2022-11-15T18:09:21;3.13;;;1.00;;
36259;SDS011;22296;50.824;5.644;2022-11-15T18:11:50;4.30;;;1.25;;
36259;SDS011;22296;50.824;5.644;2022-11-15T18:14:19;5.50;;;1.65;;
36259;SDS011;22296;50.824;5.644;2022-11-15T18:16:46;2.08;;;1.52;;
36259;SDS011;22296;50.824;5.644;2022-11-15T18:19:13;1.73;;;0.85;;
36259;SDS011;22296;50.824;5.644;2022-11-15T18:21:41;1.50;;;1.05;;
36259;SDS011;22296;50.824;5.644;2022-11-15T18:24:26;3.45;;;1.27;;
36259;SDS011;22296;50.824;5.644;2022-11-15T18:26:55;1.35;;;1.10;;
36259;SDS011;22296;50.824;5.644;2022-11-15T18:29:23;1.90;;;1.20;;
36259;SDS011;22296;50.824;5.644;2022-11-15T18:31:50;2.60;;;1.20;;
36259;SDS011;22296;50.824;5.644;2022-11-15T18:34:22;4.20;;;1.60;;
36259;SDS011;22296;50.824;5.644;2022-11-15T18:36:52;1.70;;;1.10;;
36259;SDS011;22296;50.824;5.644;2022-11-15T18:39:19;1.65;;;1.10;;
36259;SDS011;22296;50.824;5.644;2022-11-15T18:41:46;2.38;;;1.00;;
36259;SDS011;22296;50.824;5.644;2022-11-15T18:44:13;1.38;;;1.00;;
36259;SDS011;22296;50.824;5.644;2022-11-15T18:46:41;1.92;;;1.02;;
36259;SDS011;22296;50.824;5.644;2022-11-15T18:49:11;1.73;;;1.33;;